Rubino — IZCT — position and weather

sailwx.info

Track history (hours):
 
Tides and Currents Weather Stations Pressure Air Temp Water Temp Dewpoint Dewpoint Depression Visibility Wind Speed Wind Dir Waves Ship Positions

Rubino

Last reported at 2017-Oct-18 08:12 UTC. Time now 2017-Nov-24 16:31 UTC.
Position N 40°43' E 014°23'.
Warning: this ship's position is 37 days out of date.

Length 10 m; draft 1.5 m.

Type: Passenger vessel. MMSI: 247246300.

Date/timePositionNaut miles runAvg speedWind from/ knotsBaromVisibWave heightAir tempDewpointWater temp
2017-Oct-18 08:12N 40°43' E 014°23'316.0
2017-Oct-18 08:00N 40°43' E 014°19'  
2017-Oct-14 10:15N 40°46' E 014°06'518.6
2017-Oct-14 09:59N 40°47' E 014°12'2 1.0
2017-Oct-14 07:36N 40°50' E 014°14'418.1
2017-Oct-14 07:22N 40°46' E 014°16'719.1
2017-Oct-14 07:00N 40°39' E 014°18'910.0
2017-Oct-14 06:04N 40°37' E 014°30'2 5.7
2017-Oct-14 05:39N 40°36' E 014°27'0 0.0
2017-Oct-13 18:38N 40°36' E 014°27'612.8
2017-Oct-13 18:09N 40°37' E 014°19'319.2
2017-Oct-13 18:00N 40°40' E 014°18'9 7.3
2017-Oct-13 16:48N 40°48' E 014°16'517.2
2017-Oct-13 16:30N 40°44' E 014°19'910.7
2017-Oct-13 15:38N 40°36' E 014°25'2 2.5
2017-Oct-13 14:45N 40°36' E 014°28'712.6
2017-Oct-13 14:11N 40°37' E 014°19'317.4
2017-Oct-13 14:01N 40°40' E 014°19'7 2.8
2017-Oct-13 11:36N 40°46' E 014°16'218.0
2017-Oct-13 11:30N 40°44' E 014°16'1113.0
2017-Oct-13 10:40N 40°36' E 014°25'2 6.1
2017-Oct-13 10:17N 40°37' E 014°28'814.2
2017-Oct-13 09:45N 40°36' E 014°18'417.5
2017-Oct-13 09:31N 40°40' E 014°16'7 2.4
2017-Oct-13 06:40N 40°47' E 014°14'318.6
2017-Oct-13 06:30N 40°43' E 014°14'6 0.6
2017-Oct-12 19:51N 40°37' E 014°16'2 1.0
2017-Oct-12 18:10N 40°35' E 014°16'318.4
2017-Oct-12 18:00N 40°38' E 014°15'9 6.9
2017-Oct-12 16:42N 40°47' E 014°14'317.1
2017-Oct-12 16:30N 40°44' E 014°15'8 4.4
2017-Oct-12 14:42N 40°36' E 014°16'316.9
2017-Oct-12 14:30N 40°39' E 014°16'  
2017-Oct-09 06:30N 40°46' E 014°16'10 0.9
2017-Oct-08 18:15N 40°36' E 014°17'418.4
2017-Oct-08 18:00N 40°40' E 014°16'8 6.1
2017-Oct-08 16:39N 40°48' E 014°14'316.0
2017-Oct-08 16:29N 40°46' E 014°15'715.5
2017-Oct-08 16:00N 40°38' E 014°16'3 2.1
2017-Oct-08 14:48N 40°36' E 014°16'516.5
2017-Oct-08 14:30N 40°40' E 014°15'6 2.4
2017-Oct-08 11:49N 40°47' E 014°17'3 9.4
2017-Oct-08 11:31N 40°44' E 014°16'5 9.5
2017-Oct-08 11:01N 40°39' E 014°15'4 3.5
2017-Oct-08 09:58N 40°36' E 014°16'612.8
2017-Oct-08 09:30N 40°41' E 014°16'  
Track history (hours):
 
Tides and Currents Weather Stations Pressure Air Temp Water Temp Dewpoint Dewpoint Depression Visibility Wind Speed Wind Dir Waves Ship Positions

Rubino

Last reported at 2017-Oct-18 08:12 UTC. Time now 2017-Nov-24 16:31 UTC.
Position N 40°43' E 014°23'.
Warning: this ship's position is 37 days out of date.

Length 10 m; draft 1.5 m.

Type: Passenger vessel. MMSI: 247246300.

Date/timePositionNaut miles runAvg speedWind from/ knotsBaromVisibWave heightAir tempDewpointWater temp
2017-Oct-18 08:12N 40°43' E 014°23'316.0
2017-Oct-18 08:00N 40°43' E 014°19'  
2017-Oct-14 10:15N 40°46' E 014°06'518.6
2017-Oct-14 09:59N 40°47' E 014°12'2 1.0
2017-Oct-14 07:36N 40°50' E 014°14'418.1
2017-Oct-14 07:22N 40°46' E 014°16'719.1
2017-Oct-14 07:00N 40°39' E 014°18'910.0
2017-Oct-14 06:04N 40°37' E 014°30'2 5.7
2017-Oct-14 05:39N 40°36' E 014°27'0 0.0
2017-Oct-13 18:38N 40°36' E 014°27'612.8
2017-Oct-13 18:09N 40°37' E 014°19'319.2
2017-Oct-13 18:00N 40°40' E 014°18'9 7.3
2017-Oct-13 16:48N 40°48' E 014°16'517.2
2017-Oct-13 16:30N 40°44' E 014°19'910.7
2017-Oct-13 15:38N 40°36' E 014°25'2 2.5
2017-Oct-13 14:45N 40°36' E 014°28'712.6
2017-Oct-13 14:11N 40°37' E 014°19'317.4
2017-Oct-13 14:01N 40°40' E 014°19'7 2.8
2017-Oct-13 11:36N 40°46' E 014°16'218.0
2017-Oct-13 11:30N 40°44' E 014°16'1113.0
2017-Oct-13 10:40N 40°36' E 014°25'2 6.1
2017-Oct-13 10:17N 40°37' E 014°28'814.2
2017-Oct-13 09:45N 40°36' E 014°18'417.5
2017-Oct-13 09:31N 40°40' E 014°16'7 2.4
2017-Oct-13 06:40N 40°47' E 014°14'318.6
2017-Oct-13 06:30N 40°43' E 014°14'6 0.6
2017-Oct-12 19:51N 40°37' E 014°16'2 1.0
2017-Oct-12 18:10N 40°35' E 014°16'318.4
2017-Oct-12 18:00N 40°38' E 014°15'9 6.9
2017-Oct-12 16:42N 40°47' E 014°14'317.1
2017-Oct-12 16:30N 40°44' E 014°15'8 4.4
2017-Oct-12 14:42N 40°36' E 014°16'316.9
2017-Oct-12 14:30N 40°39' E 014°16'  
2017-Oct-09 06:30N 40°46' E 014°16'10 0.9
2017-Oct-08 18:15N 40°36' E 014°17'418.4
2017-Oct-08 18:00N 40°40' E 014°16'8 6.1
2017-Oct-08 16:39N 40°48' E 014°14'316.0
2017-Oct-08 16:29N 40°46' E 014°15'715.5
2017-Oct-08 16:00N 40°38' E 014°16'3 2.1
2017-Oct-08 14:48N 40°36' E 014°16'516.5
2017-Oct-08 14:30N 40°40' E 014°15'6 2.4
2017-Oct-08 11:49N 40°47' E 014°17'3 9.4
2017-Oct-08 11:31N 40°44' E 014°16'5 9.5
2017-Oct-08 11:01N 40°39' E 014°15'4 3.5
2017-Oct-08 09:58N 40°36' E 014°16'612.8
2017-Oct-08 09:30N 40°41' E 014°16'  

Dump ship's entire track history